< < Back
Terminal Aerodrome Forecast


Current Version              Previous Versions:   1  2  3  4  5  6  7  8  9  

Terminal Aerodrome Forecast

901
FTUS44 KOHX 301120
TAFCSV
TAF
KCSV 301120Z 3012/0112 36005KT P6SM SKC=

Latest METAR

922
SAUS70 KWBC 010200 RRX
MTRCSV
METAR KCSV 010153Z AUTO 00000KT 10SM CLR 19/14 A3005 RMK AO2 SLP158
T01890139


USA.gov is the U.S. government's official web portal to all federal, state and local government web resources and services.